Raymond, Georgia
Current Conditions -  °F | °C
As of 11:55 AM on Saturday 20 Dec 2014 (Local Time) from KCCO Reporting Station
Overcast Overcast  
Wind Chill: 49°   Ceiling: 700
Heat Index: 49°   Visibility: 10mi
Dew Point: 48°   Wind: 0mph
Humidity: 94%   Direction: NA
Pressure: 30.19"   Gusts: NA
Location:  33.3877°N, 84.8596°W
Report Text: KCCO 201655Z AUTO 00000KT 10SM OVC007 10/09 A3019 RMK AO2 T00970087
Loading
Personal Weather Stations






























Interactive Weather Map New forecast layout! Learn more

10-Day Weather Forecast

Advertisements
Track Severe Weather on mobile